sensor_id;sensor_type;location;lat;lon;timestamp;pressure;altitude;pressure_sealevel;temperature;humidity
73016;BME280;61893;50.074;14.440;2023-07-02T00:04:26;97496.75;;;19.90;58.93
73016;BME280;61893;50.074;14.440;2023-07-02T00:06:53;97492.47;;;19.77;59.89
73016;BME280;61893;50.074;14.440;2023-07-02T00:09:23;97488.69;;;19.78;61.69
73016;BME280;61893;50.074;14.440;2023-07-02T00:11:50;97498.69;;;19.66;62.43
73016;BME280;61893;50.074;14.440;2023-07-02T00:14:16;97490.56;;;19.54;62.80
73016;BME280;61893;50.074;14.440;2023-07-02T00:16:46;97483.88;;;19.45;63.10
73016;BME280;61893;50.074;14.440;2023-07-02T00:19:13;97486.44;;;19.28;63.74
73016;BME280;61893;50.074;14.440;2023-07-02T00:21:42;97488.31;;;19.28;63.91
73016;BME280;61893;50.074;14.440;2023-07-02T00:24:09;97489.97;;;19.29;63.73
73016;BME280;61893;50.074;14.440;2023-07-02T00:26:35;97485.16;;;19.31;63.47
73016;BME280;61893;50.074;14.440;2023-07-02T00:29:02;97487.63;;;19.32;63.29
73016;BME280;61893;50.074;14.440;2023-07-02T00:31:30;97487.16;;;19.35;63.61
73016;BME280;61893;50.074;14.440;2023-07-02T00:33:59;97491.13;;;19.21;64.17
73016;BME280;61893;50.074;14.440;2023-07-02T00:36:29;97488.44;;;19.09;64.76
73016;BME280;61893;50.074;14.440;2023-07-02T00:39:03;97496.53;;;19.21;64.48
73016;BME280;61893;50.074;14.440;2023-07-02T00:41:29;97491.47;;;19.13;65.28
73016;BME280;61893;50.074;14.440;2023-07-02T00:43:56;97494.84;;;18.97;65.83
73016;BME280;61893;50.074;14.440;2023-07-02T00:46:40;97498.88;;;19.06;65.32
73016;BME280;61893;50.074;14.440;2023-07-02T00:49:42;97502.00;;;19.03;65.30
73016;BME280;61893;50.074;14.440;2023-07-02T00:52:14;97498.72;;;18.89;66.84
73016;BME280;61893;50.074;14.440;2023-07-02T00:54:42;97499.25;;;18.79;67.44
73016;BME280;61893;50.074;14.440;2023-07-02T00:57:08;97501.66;;;18.69;69.20
73016;BME280;61893;50.074;14.440;2023-07-02T00:59:34;97497.00;;;18.76;70.33
73016;BME280;61893;50.074;14.440;2023-07-02T01:02:07;97501.66;;;18.39;73.68
73016;BME280;61893;50.074;14.440;2023-07-02T01:04:38;97490.66;;;18.40;74.28
73016;BME280;61893;50.074;14.440;2023-07-02T01:07:24;97496.97;;;18.34;75.84
73016;BME280;61893;50.074;14.440;2023-07-02T01:09:51;97493.47;;;18.15;77.47
73016;BME280;61893;50.074;14.440;2023-07-02T01:12:22;97486.75;;;18.06;78.19
73016;BME280;61893;50.074;14.440;2023-07-02T01:14:51;97492.25;;;18.11;77.98
73016;BME280;61893;50.074;14.440;2023-07-02T01:17:32;97492.22;;;17.81;79.78
73016;BME280;61893;50.074;14.440;2023-07-02T01:20:11;97488.16;;;17.90;79.79
73016;BME280;61893;50.074;14.440;2023-07-02T01:22:38;97491.03;;;17.95;79.41
73016;BME280;61893;50.074;14.440;2023-07-02T01:25:09;97491.66;;;17.72;80.25
73016;BME280;61893;50.074;14.440;2023-07-02T01:27:38;97489.78;;;17.73;80.74
73016;BME280;61893;50.074;14.440;2023-07-02T01:30:12;97488.53;;;17.75;80.25
73016;BME280;61893;50.074;14.440;2023-07-02T01:32:38;97494.09;;;17.74;80.27
73016;BME280;61893;50.074;14.440;2023-07-02T01:35:04;97487.88;;;17.80;80.10
73016;BME280;61893;50.074;14.440;2023-07-02T01:37:30;97492.56;;;17.66;80.99
73016;BME280;61893;50.074;14.440;2023-07-02T01:40:06;97492.44;;;17.79;79.92
73016;BME280;61893;50.074;14.440;2023-07-02T01:42:32;97494.81;;;17.69;80.67
73016;BME280;61893;50.074;14.440;2023-07-02T01:45:02;97484.66;;;17.71;80.05
73016;BME280;61893;50.074;14.440;2023-07-02T01:47:31;97493.09;;;17.75;79.87
73016;BME280;61893;50.074;14.440;2023-07-02T01:49:56;97498.47;;;17.75;80.25
73016;BME280;61893;50.074;14.440;2023-07-02T01:52:22;97488.09;;;17.78;79.73
73016;BME280;61893;50.074;14.440;2023-07-02T01:54:48;97489.63;;;17.68;80.17
73016;BME280;61893;50.074;14.440;2023-07-02T01:57:14;97487.28;;;17.78;79.47
73016;BME280;61893;50.074;14.440;2023-07-02T01:59:40;97492.31;;;17.68;79.95
73016;BME280;61893;50.074;14.440;2023-07-02T02:02:06;97491.22;;;17.75;79.83
73016;BME280;61893;50.074;14.440;2023-07-02T02:04:32;97488.09;;;17.78;79.45
73016;BME280;61893;50.074;14.440;2023-07-02T02:06:58;97483.13;;;17.75;78.87
73016;BME280;61893;50.074;14.440;2023-07-02T02:09:24;97488.88;;;17.86;78.72
73016;BME280;61893;50.074;14.440;2023-07-02T02:11:54;97492.38;;;17.86;78.81
73016;BME280;61893;50.074;14.440;2023-07-02T02:14:20;97487.03;;;17.79;78.71
73016;BME280;61893;50.074;14.440;2023-07-02T02:19:22;97490.16;;;17.76;79.15
73016;BME280;61893;50.074;14.440;2023-07-02T02:21:48;97489.97;;;17.78;78.99
73016;BME280;61893;50.074;14.440;2023-07-02T02:24:14;97491.91;;;17.89;78.78
73016;BME280;61893;50.074;14.440;2023-07-02T02:26:40;97494.25;;;17.86;79.16
73016;BME280;61893;50.074;14.440;2023-07-02T02:29:07;97496.38;;;17.77;78.95
73016;BME280;61893;50.074;14.440;2023-07-02T02:31:33;97494.09;;;17.74;79.05
73016;BME280;61893;50.074;14.440;2023-07-02T02:33:59;97493.56;;;17.90;78.22
73016;BME280;61893;50.074;14.440;2023-07-02T02:36:25;97493.84;;;17.82;78.83
73016;BME280;61893;50.074;14.440;2023-07-02T02:38:50;97485.19;;;17.80;78.53
73016;BME280;61893;50.074;14.440;2023-07-02T02:41:19;97498.03;;;17.78;78.71
73016;BME280;61893;50.074;14.440;2023-07-02T02:43:44;97499.91;;;17.96;78.09
73016;BME280;61893;50.074;14.440;2023-07-02T02:46:11;97491.47;;;17.92;77.70
73016;BME280;61893;50.074;14.440;2023-07-02T02:48:37;97492.91;;;17.95;77.46
73016;BME280;61893;50.074;14.440;2023-07-02T02:51:10;97496.16;;;17.97;77.19
73016;BME280;61893;50.074;14.440;2023-07-02T02:53:36;97503.22;;;17.98;76.66
73016;BME280;61893;50.074;14.440;2023-07-02T02:56:02;97496.91;;;18.04;76.55
73016;BME280;61893;50.074;14.440;2023-07-02T02:58:27;97507.16;;;17.95;77.00
73016;BME280;61893;50.074;14.440;2023-07-02T03:00:55;97498.03;;;17.96;76.54
73016;BME280;61893;50.074;14.440;2023-07-02T03:03:22;97499.09;;;17.95;77.07
73016;BME280;61893;50.074;14.440;2023-07-02T03:06:13;97502.59;;;17.96;76.88
73016;BME280;61893;50.074;14.440;2023-07-02T03:08:40;97500.44;;;18.05;76.00
73016;BME280;61893;50.074;14.440;2023-07-02T03:11:26;97500.72;;;17.96;76.39
73016;BME280;61893;50.074;14.440;2023-07-02T03:13:57;97509.25;;;18.12;75.75
73016;BME280;61893;50.074;14.440;2023-07-02T03:16:23;97505.97;;;18.10;75.75
73016;BME280;61893;50.074;14.440;2023-07-02T03:18:49;97502.22;;;18.11;75.85
73016;BME280;61893;50.074;14.440;2023-07-02T03:21:15;97509.63;;;18.15;75.58
73016;BME280;61893;50.074;14.440;2023-07-02T03:23:40;97508.13;;;18.01;76.15
73016;BME280;61893;50.074;14.440;2023-07-02T03:26:06;97508.50;;;18.05;75.65
73016;BME280;61893;50.074;14.440;2023-07-02T03:28:32;97509.25;;;18.12;75.47
73016;BME280;61893;50.074;14.440;2023-07-02T03:31:02;97512.00;;;18.23;74.70
73016;BME280;61893;50.074;14.440;2023-07-02T03:33:28;97507.28;;;18.19;74.86
73016;BME280;61893;50.074;14.440;2023-07-02T03:35:56;97521.44;;;18.14;74.91
73016;BME280;61893;50.074;14.440;2023-07-02T03:38:22;97518.81;;;18.26;74.82
73016;BME280;61893;50.074;14.440;2023-07-02T03:40:48;97514.25;;;18.27;74.59
73016;BME280;61893;50.074;14.440;2023-07-02T03:43:14;97520.81;;;18.31;74.64
73016;BME280;61893;50.074;14.440;2023-07-02T03:45:40;97521.31;;;18.39;73.73
73016;BME280;61893;50.074;14.440;2023-07-02T03:48:05;97520.97;;;18.36;73.79
73016;BME280;61893;50.074;14.440;2023-07-02T03:50:45;97517.81;;;18.39;73.73
73016;BME280;61893;50.074;14.440;2023-07-02T03:53:45;97533.63;;;18.35;73.86
73016;BME280;61893;50.074;14.440;2023-07-02T03:56:11;97531.59;;;18.31;74.06
73016;BME280;61893;50.074;14.440;2023-07-02T03:58:37;97530.56;;;18.32;73.81
73016;BME280;61893;50.074;14.440;2023-07-02T04:01:03;97537.44;;;18.28;74.24
73016;BME280;61893;50.074;14.440;2023-07-02T04:03:31;97535.69;;;18.33;73.85
73016;BME280;61893;50.074;14.440;2023-07-02T04:06:00;97544.84;;;18.32;74.03
73016;BME280;61893;50.074;14.440;2023-07-02T04:08:28;97538.63;;;18.32;73.72
73016;BME280;61893;50.074;14.440;2023-07-02T04:11:00;97545.34;;;18.41;73.95
73016;BME280;61893;50.074;14.440;2023-07-02T04:13:25;97545.94;;;18.43;73.18
73016;BME280;61893;50.074;14.440;2023-07-02T04:15:52;97551.91;;;18.45;73.47
73016;BME280;61893;50.074;14.440;2023-07-02T04:18:17;97543.63;;;18.28;73.97
73016;BME280;61893;50.074;14.440;2023-07-02T04:20:44;97552.69;;;18.34;74.00
73016;BME280;61893;50.074;14.440;2023-07-02T04:23:10;97547.91;;;18.17;74.56
73016;BME280;61893;50.074;14.440;2023-07-02T04:25:36;97556.63;;;18.31;74.37
73016;BME280;61893;50.074;14.440;2023-07-02T04:28:02;97556.66;;;18.13;75.39
73016;BME280;61893;50.074;14.440;2023-07-02T04:30:28;97559.72;;;18.16;75.52
73016;BME280;61893;50.074;14.440;2023-07-02T04:32:53;97558.97;;;18.09;76.50
73016;BME280;61893;50.074;14.440;2023-07-02T04:35:20;97560.03;;;18.27;75.59
73016;BME280;61893;50.074;14.440;2023-07-02T04:37:45;97561.06;;;18.26;75.77
73016;BME280;61893;50.074;14.440;2023-07-02T04:40:11;97569.22;;;18.19;76.49
73016;BME280;61893;50.074;14.440;2023-07-02T04:42:39;97570.28;;;18.18;76.64
73016;BME280;61893;50.074;14.440;2023-07-02T04:45:06;97574.22;;;18.34;76.12
73016;BME280;61893;50.074;14.440;2023-07-02T04:47:32;97578.50;;;18.23;76.48
73016;BME280;61893;50.074;14.440;2023-07-02T04:50:09;97577.44;;;18.24;77.04
73016;BME280;61893;50.074;14.440;2023-07-02T04:52:35;97576.38;;;18.25;76.93
73016;BME280;61893;50.074;14.440;2023-07-02T04:55:02;97568.31;;;18.25;77.29
73016;BME280;61893;50.074;14.440;2023-07-02T04:57:28;97575.94;;;18.10;78.04
73016;BME280;61893;50.074;14.440;2023-07-02T05:00:07;97578.47;;;18.05;78.41
73016;BME280;61893;50.074;14.440;2023-07-02T05:02:34;97580.44;;;17.97;79.13
73016;BME280;61893;50.074;14.440;2023-07-02T05:05:03;97581.75;;;17.88;79.66
73016;BME280;61893;50.074;14.440;2023-07-02T05:07:35;97576.84;;;18.04;78.83
73016;BME280;61893;50.074;14.440;2023-07-02T05:10:03;97577.75;;;18.16;78.55
73016;BME280;61893;50.074;14.440;2023-07-02T05:12:29;97569.66;;;18.16;78.58
73016;BME280;61893;50.074;14.440;2023-07-02T05:14:56;97567.44;;;18.13;78.37
73016;BME280;61893;50.074;14.440;2023-07-02T05:17:23;97570.72;;;18.33;77.27
73016;BME280;61893;50.074;14.440;2023-07-02T05:19:55;97569.66;;;18.53;76.54
73016;BME280;61893;50.074;14.440;2023-07-02T05:22:21;97571.84;;;19.34;73.17
73016;BME280;61893;50.074;14.440;2023-07-02T05:24:49;97574.44;;;22.44;61.28
73016;BME280;61893;50.074;14.440;2023-07-02T05:27:15;97571.72;;;23.15;57.51
73016;BME280;61893;50.074;14.440;2023-07-02T05:29:43;97561.28;;;21.58;62.38
73016;BME280;61893;50.074;14.440;2023-07-02T05:32:09;97571.34;;;21.80;62.23
73016;BME280;61893;50.074;14.440;2023-07-02T05:34:35;97563.63;;;22.71;58.20
73016;BME280;61893;50.074;14.440;2023-07-02T05:37:01;97570.41;;;21.69;62.03
73016;BME280;61893;50.074;14.440;2023-07-02T05:39:27;97574.75;;;21.08;64.27
73016;BME280;61893;50.074;14.440;2023-07-02T05:41:56;97576.22;;;20.70;65.83
73016;BME280;61893;50.074;14.440;2023-07-02T05:44:22;97577.00;;;22.78;57.74
73016;BME280;61893;50.074;14.440;2023-07-02T05:46:58;97578.84;;;25.12;51.46
73016;BME280;61893;50.074;14.440;2023-07-02T05:49:32;97586.28;;;24.06;52.74
73016;BME280;61893;50.074;14.440;2023-07-02T05:51:58;97576.00;;;23.38;54.51
73016;BME280;61893;50.074;14.440;2023-07-02T05:54:40;97585.19;;;25.33;49.75
73016;BME280;61893;50.074;14.440;2023-07-02T05:57:19;97582.84;;;27.17;44.52
73016;BME280;61893;50.074;14.440;2023-07-02T05:59:45;97592.41;;;27.94;42.77
73016;BME280;61893;50.074;14.440;2023-07-02T06:02:11;97590.94;;;26.83;44.31
73016;BME280;61893;50.074;14.440;2023-07-02T06:04:38;97590.66;;;27.34;42.74
73016;BME280;61893;50.074;14.440;2023-07-02T06:07:05;97595.56;;;27.32;42.89
73016;BME280;61893;50.074;14.440;2023-07-02T06:09:32;97590.91;;;26.88;43.95
73016;BME280;61893;50.074;14.440;2023-07-02T06:14:36;97594.59;;;27.18;43.18
73016;BME280;61893;50.074;14.440;2023-07-02T06:17:02;97594.16;;;27.40;42.44
73016;BME280;61893;50.074;14.440;2023-07-02T06:19:32;97590.38;;;25.65;46.47
73016;BME280;61893;50.074;14.440;2023-07-02T06:21:59;97601.28;;;25.50;46.54
73016;BME280;61893;50.074;14.440;2023-07-02T06:24:25;97598.25;;;26.13;44.79
73016;BME280;61893;50.074;14.440;2023-07-02T06:26:51;97593.06;;;25.29;46.42
73016;BME280;61893;50.074;14.440;2023-07-02T06:29:19;97607.13;;;24.95;47.04
73016;BME280;61893;50.074;14.440;2023-07-02T06:34:19;97608.69;;;24.18;48.20
73016;BME280;61893;50.074;14.440;2023-07-02T06:36:59;97608.91;;;25.73;44.89
73016;BME280;61893;50.074;14.440;2023-07-02T06:39:33;97602.88;;;25.66;44.94
73016;BME280;61893;50.074;14.440;2023-07-02T06:41:59;97595.81;;;25.39;45.18
73016;BME280;61893;50.074;14.440;2023-07-02T06:44:25;97604.00;;;25.60;44.60
73016;BME280;61893;50.074;14.440;2023-07-02T06:46:51;97601.53;;;26.04;43.56
73016;BME280;61893;50.074;14.440;2023-07-02T06:49:17;97611.22;;;25.03;45.96
73016;BME280;61893;50.074;14.440;2023-07-02T06:51:44;97602.56;;;23.64;49.06
73016;BME280;61893;50.074;14.440;2023-07-02T07:02:52;97617.69;;;22.78;50.82
73016;BME280;61893;50.074;14.440;2023-07-02T07:07:47;97626.41;;;22.19;52.35
73016;BME280;61893;50.074;14.440;2023-07-02T07:19:08;97627.56;;;22.23;53.27
73016;BME280;61893;50.074;14.440;2023-07-02T07:24:35;97637.00;;;21.25;55.22
73016;BME280;61893;50.074;14.440;2023-07-02T07:27:01;97637.00;;;21.25;54.80
73016;BME280;61893;50.074;14.440;2023-07-02T07:44:22;97641.78;;;28.85;36.46
73016;BME280;61893;50.074;14.440;2023-07-02T07:49:42;97628.59;;;29.68;33.75
73016;BME280;61893;50.074;14.440;2023-07-02T07:52:08;97638.50;;;30.89;31.96
73016;BME280;61893;50.074;14.440;2023-07-02T07:54:38;97638.31;;;32.17;29.71
73016;BME280;61893;50.074;14.440;2023-07-02T07:57:31;97645.66;;;31.13;30.78
73016;BME280;61893;50.074;14.440;2023-07-02T08:00:07;97634.66;;;31.99;30.05
73016;BME280;61893;50.074;14.440;2023-07-02T08:02:35;97645.50;;;33.07;28.05
73016;BME280;61893;50.074;14.440;2023-07-02T08:05:07;97644.50;;;32.94;27.97
73016;BME280;61893;50.074;14.440;2023-07-02T08:07:34;97640.09;;;31.04;31.27
73016;BME280;61893;50.074;14.440;2023-07-02T08:10:01;97634.91;;;29.68;32.27
73016;BME280;61893;50.074;14.440;2023-07-02T08:18:18;97639.78;;;31.19;30.76
73016;BME280;61893;50.074;14.440;2023-07-02T08:23:37;97634.47;;;32.27;28.87
73016;BME280;61893;50.074;14.440;2023-07-02T08:26:13;97634.63;;;31.54;29.42
73016;BME280;61893;50.074;14.440;2023-07-02T08:31:36;97638.13;;;28.70;34.47
73016;BME280;61893;50.074;14.440;2023-07-02T08:41:46;97648.03;;;28.37;35.29
73016;BME280;61893;50.074;14.440;2023-07-02T08:44:21;97642.13;;;27.07;38.31
73016;BME280;61893;50.074;14.440;2023-07-02T08:46:49;97654.38;;;26.29;40.18
73016;BME280;61893;50.074;14.440;2023-07-02T08:49:37;97666.41;;;26.13;40.91
73016;BME280;61893;50.074;14.440;2023-07-02T08:52:03;97656.88;;;26.05;41.34
73016;BME280;61893;50.074;14.440;2023-07-02T08:54:37;97657.09;;;25.62;42.42
73016;BME280;61893;50.074;14.440;2023-07-02T08:57:09;97654.31;;;25.22;43.71
73016;BME280;61893;50.074;14.440;2023-07-02T08:59:50;97659.00;;;27.24;39.11
73016;BME280;61893;50.074;14.440;2023-07-02T09:02:38;97652.50;;;26.24;40.51
73016;BME280;61893;50.074;14.440;2023-07-02T09:05:07;97654.41;;;25.68;41.05
73016;BME280;61893;50.074;14.440;2023-07-02T09:08:26;97656.75;;;26.77;39.62
73016;BME280;61893;50.074;14.440;2023-07-02T09:11:56;97657.13;;;27.20;38.14
73016;BME280;61893;50.074;14.440;2023-07-02T09:14:31;97653.59;;;26.03;40.23
73016;BME280;61893;50.074;14.440;2023-07-02T09:17:31;97657.34;;;25.46;41.73
73016;BME280;61893;50.074;14.440;2023-07-02T09:20:01;97660.22;;;25.03;41.50
73016;BME280;61893;50.074;14.440;2023-07-02T09:22:42;97662.88;;;23.98;43.92
73016;BME280;61893;50.074;14.440;2023-07-02T09:31:13;97654.28;;;23.47;45.06
73016;BME280;61893;50.074;14.440;2023-07-02T09:36:38;97660.22;;;24.08;44.13
73016;BME280;61893;50.074;14.440;2023-07-02T09:39:12;97660.56;;;24.17;43.16
73016;BME280;61893;50.074;14.440;2023-07-02T09:49:39;97657.53;;;26.82;38.16
73016;BME280;61893;50.074;14.440;2023-07-02T09:52:08;97651.19;;;27.52;35.88
73016;BME280;61893;50.074;14.440;2023-07-02T09:54:41;97650.59;;;27.60;35.97
73016;BME280;61893;50.074;14.440;2023-07-02T09:57:16;97650.81;;;27.63;36.01
73016;BME280;61893;50.074;14.440;2023-07-02T10:02:38;97634.50;;;26.13;38.55
73016;BME280;61893;50.074;14.440;2023-07-02T10:05:07;97642.44;;;27.00;37.47
73016;BME280;61893;50.074;14.440;2023-07-02T10:07:35;97641.81;;;28.02;35.78
73016;BME280;61893;50.074;14.440;2023-07-02T10:10:05;97637.44;;;27.23;34.33
73016;BME280;61893;50.074;14.440;2023-07-02T10:12:48;97628.34;;;26.78;35.38
73016;BME280;61893;50.074;14.440;2023-07-02T10:18:03;97635.19;;;28.08;32.57
73016;BME280;61893;50.074;14.440;2023-07-02T10:23:48;97627.16;;;27.04;32.88
73016;BME280;61893;50.074;14.440;2023-07-02T10:29:36;97642.66;;;26.28;36.80
73016;BME280;61893;50.074;14.440;2023-07-02T10:37:40;97639.22;;;26.88;36.14
73016;BME280;61893;50.074;14.440;2023-07-02T10:40:20;97642.66;;;26.39;35.99
73016;BME280;61893;50.074;14.440;2023-07-02T10:46:10;97636.53;;;26.78;35.75
73016;BME280;61893;50.074;14.440;2023-07-02T10:48:59;97637.72;;;26.56;36.59
73016;BME280;61893;50.074;14.440;2023-07-02T10:51:26;97629.88;;;26.03;37.03
73016;BME280;61893;50.074;14.440;2023-07-02T10:53:58;97632.56;;;26.24;36.49
73016;BME280;61893;50.074;14.440;2023-07-02T10:59:29;97639.69;;;25.94;35.62
73016;BME280;61893;50.074;14.440;2023-07-02T11:01:59;97638.31;;;25.71;35.71
73016;BME280;61893;50.074;14.440;2023-07-02T11:04:30;97642.38;;;25.43;36.71
73016;BME280;61893;50.074;14.440;2023-07-02T11:06:57;97639.13;;;25.41;36.30
73016;BME280;61893;50.074;14.440;2023-07-02T11:12:29;97645.66;;;25.45;34.90
73016;BME280;61893;50.074;14.440;2023-07-02T11:15:15;97643.72;;;25.40;34.79
73016;BME280;61893;50.074;14.440;2023-07-02T11:20:55;97644.63;;;25.87;33.43
73016;BME280;61893;50.074;14.440;2023-07-02T11:23:50;97654.16;;;26.00;33.23
73016;BME280;61893;50.074;14.440;2023-07-02T11:32:17;97646.22;;;26.03;33.11
73016;BME280;61893;50.074;14.440;2023-07-02T11:46:00;97653.06;;;26.11;34.72
73016;BME280;61893;50.074;14.440;2023-07-02T11:48:28;97655.25;;;25.99;35.16
73016;BME280;61893;50.074;14.440;2023-07-02T11:51:02;97665.88;;;26.00;35.41
73016;BME280;61893;50.074;14.440;2023-07-02T11:53:28;97668.88;;;25.89;36.91
73016;BME280;61893;50.074;14.440;2023-07-02T11:55:54;97671.88;;;25.87;37.68
73016;BME280;61893;50.074;14.440;2023-07-02T11:58:22;97668.31;;;25.81;37.42
73016;BME280;61893;50.074;14.440;2023-07-02T12:00:49;97675.66;;;26.12;36.48
73016;BME280;61893;50.074;14.440;2023-07-02T12:03:44;97670.97;;;26.63;35.83
73016;BME280;61893;50.074;14.440;2023-07-02T12:06:10;97676.97;;;26.55;35.98
73016;BME280;61893;50.074;14.440;2023-07-02T12:11:30;97683.88;;;25.96;37.05
73016;BME280;61893;50.074;14.440;2023-07-02T12:14:22;97674.56;;;26.28;35.91
73016;BME280;61893;50.074;14.440;2023-07-02T12:16:49;97674.28;;;26.45;34.88
73016;BME280;61893;50.074;14.440;2023-07-02T12:19:15;97676.19;;;26.29;35.42
73016;BME280;61893;50.074;14.440;2023-07-02T12:21:45;97679.97;;;26.48;34.81
73016;BME280;61893;50.074;14.440;2023-07-02T12:24:12;97679.22;;;26.27;34.09
73016;BME280;61893;50.074;14.440;2023-07-02T12:29:16;97667.50;;;26.27;34.11
73016;BME280;61893;50.074;14.440;2023-07-02T12:31:42;97668.47;;;26.77;33.04
73016;BME280;61893;50.074;14.440;2023-07-02T12:36:57;97677.69;;;26.91;33.19
73016;BME280;61893;50.074;14.440;2023-07-02T12:44:45;97675.28;;;26.80;32.43
73016;BME280;61893;50.074;14.440;2023-07-02T12:47:11;97674.56;;;26.54;32.36
73016;BME280;61893;50.074;14.440;2023-07-02T12:49:37;97672.31;;;26.76;31.79
73016;BME280;61893;50.074;14.440;2023-07-02T12:52:03;97668.16;;;26.89;31.76
73016;BME280;61893;50.074;14.440;2023-07-02T12:54:29;97678.53;;;26.87;31.53
73016;BME280;61893;50.074;14.440;2023-07-02T13:02:36;97679.03;;;27.04;29.60
73016;BME280;61893;50.074;14.440;2023-07-02T13:05:02;97691.44;;;26.61;30.68
73016;BME280;61893;50.074;14.440;2023-07-02T13:10:11;97686.81;;;26.41;31.07
73016;BME280;61893;50.074;14.440;2023-07-02T13:12:39;97689.25;;;26.63;30.52
73016;BME280;61893;50.074;14.440;2023-07-02T13:17:58;97691.47;;;26.56;31.32
73016;BME280;61893;50.074;14.440;2023-07-02T13:20:24;97691.75;;;26.23;31.46
73016;BME280;61893;50.074;14.440;2023-07-02T13:23:03;97700.47;;;26.15;30.75
73016;BME280;61893;50.074;14.440;2023-07-02T13:25:30;97689.31;;;25.86;31.15
73016;BME280;61893;50.074;14.440;2023-07-02T13:27:58;97687.41;;;26.07;31.07
73016;BME280;61893;50.074;14.440;2023-07-02T13:30:25;97684.13;;;26.31;30.65
73016;BME280;61893;50.074;14.440;2023-07-02T13:32:57;97681.13;;;25.96;29.41
73016;BME280;61893;50.074;14.440;2023-07-02T13:35:24;97685.09;;;25.22;30.18
73016;BME280;61893;50.074;14.440;2023-07-02T13:37:54;97691.97;;;25.55;29.16
73016;BME280;61893;50.074;14.440;2023-07-02T13:40:20;97685.22;;;25.89;28.90
73016;BME280;61893;50.074;14.440;2023-07-02T13:42:47;97685.19;;;26.35;28.23
73016;BME280;61893;50.074;14.440;2023-07-02T13:45:19;97684.06;;;25.69;28.66
73016;BME280;61893;50.074;14.440;2023-07-02T13:47:45;97693.59;;;25.51;29.10
73016;BME280;61893;50.074;14.440;2023-07-02T13:50:15;97694.63;;;25.35;29.44
73016;BME280;61893;50.074;14.440;2023-07-02T13:52:43;97690.66;;;25.78;28.64
73016;BME280;61893;50.074;14.440;2023-07-02T13:55:09;97694.50;;;26.13;28.06
73016;BME280;61893;50.074;14.440;2023-07-02T13:57:37;97671.88;;;26.02;28.28
73016;BME280;61893;50.074;14.440;2023-07-02T14:00:07;97693.66;;;26.18;27.99
73016;BME280;61893;50.074;14.440;2023-07-02T14:05:59;97699.66;;;26.15;28.33
73016;BME280;61893;50.074;14.440;2023-07-02T14:08:26;97701.84;;;26.23;28.40
73016;BME280;61893;50.074;14.440;2023-07-02T14:10:52;97678.09;;;26.23;28.07
73016;BME280;61893;50.074;14.440;2023-07-02T14:13:19;97690.91;;;26.54;27.93
73016;BME280;61893;50.074;14.440;2023-07-02T14:15:45;97688.44;;;26.57;28.33
73016;BME280;61893;50.074;14.440;2023-07-02T14:26:46;97702.09;;;26.47;26.51
73016;BME280;61893;50.074;14.440;2023-07-02T14:29:13;97700.69;;;26.49;26.82
73016;BME280;61893;50.074;14.440;2023-07-02T14:31:42;97712.72;;;26.64;26.82
73016;BME280;61893;50.074;14.440;2023-07-02T14:34:08;97710.00;;;26.43;27.62
73016;BME280;61893;50.074;14.440;2023-07-02T14:36:34;97703.19;;;26.36;28.04
73016;BME280;61893;50.074;14.440;2023-07-02T14:41:50;97715.75;;;26.42;27.19
73016;BME280;61893;50.074;14.440;2023-07-02T14:44:19;97717.91;;;26.40;27.15
73016;BME280;61893;50.074;14.440;2023-07-02T14:46:47;97706.47;;;26.53;27.49
73016;BME280;61893;50.074;14.440;2023-07-02T14:49:14;97713.00;;;26.37;27.60
73016;BME280;61893;50.074;14.440;2023-07-02T14:54:27;97719.84;;;25.93;28.44
73016;BME280;61893;50.074;14.440;2023-07-02T15:02:42;97724.41;;;25.67;27.64
73016;BME280;61893;50.074;14.440;2023-07-02T15:05:12;97735.25;;;25.52;28.32
73016;BME280;61893;50.074;14.440;2023-07-02T15:07:45;97717.84;;;25.58;28.69
73016;BME280;61893;50.074;14.440;2023-07-02T15:10:12;97721.97;;;25.81;28.36
73016;BME280;61893;50.074;14.440;2023-07-02T15:12:39;97719.16;;;25.30;29.53
73016;BME280;61893;50.074;14.440;2023-07-02T15:15:05;97721.22;;;25.96;28.61
73016;BME280;61893;50.074;14.440;2023-07-02T15:23:21;97733.72;;;26.43;27.71
73016;BME280;61893;50.074;14.440;2023-07-02T15:25:59;97733.47;;;26.39;27.79
73016;BME280;61893;50.074;14.440;2023-07-02T15:28:40;97736.19;;;26.24;27.91
73016;BME280;61893;50.074;14.440;2023-07-02T15:31:32;97742.56;;;25.31;29.28
73016;BME280;61893;50.074;14.440;2023-07-02T15:34:01;97752.25;;;25.11;29.47
73016;BME280;61893;50.074;14.440;2023-07-02T15:36:28;97751.16;;;25.07;29.49
73016;BME280;61893;50.074;14.440;2023-07-02T15:38:54;97752.53;;;25.10;29.69
73016;BME280;61893;50.074;14.440;2023-07-02T15:47:25;97752.19;;;25.64;29.71
73016;BME280;61893;50.074;14.440;2023-07-02T15:49:59;97749.16;;;25.50;29.59
73016;BME280;61893;50.074;14.440;2023-07-02T15:52:28;97762.53;;;25.72;29.34
73016;BME280;61893;50.074;14.440;2023-07-02T15:54:55;97755.88;;;25.32;29.88
73016;BME280;61893;50.074;14.440;2023-07-02T15:57:22;97754.88;;;24.91;30.71
73016;BME280;61893;50.074;14.440;2023-07-02T15:59:48;97761.25;;;24.64;31.12
73016;BME280;61893;50.074;14.440;2023-07-02T16:02:16;97753.94;;;24.33;31.63
73016;BME280;61893;50.074;14.440;2023-07-02T16:07:27;97765.06;;;24.31;31.82
73016;BME280;61893;50.074;14.440;2023-07-02T16:09:53;97760.28;;;24.43;31.15
73016;BME280;61893;50.074;14.440;2023-07-02T16:12:23;97759.25;;;24.49;31.18
73016;BME280;61893;50.074;14.440;2023-07-02T16:20:57;97766.81;;;24.85;31.47
73016;BME280;61893;50.074;14.440;2023-07-02T16:23:24;97769.16;;;24.71;31.91
73016;BME280;61893;50.074;14.440;2023-07-02T16:28:59;97763.72;;;24.71;32.39
73016;BME280;61893;50.074;14.440;2023-07-02T16:34:23;97774.69;;;24.86;32.00